createdAt,value
2022-08-10T00:01:53.283Z,1.73
2022-08-10T00:04:22.794Z,1.60
2022-08-10T00:06:54.191Z,1.63
2022-08-10T00:09:22.460Z,1.83
2022-08-10T00:11:50.428Z,1.60
2022-08-10T00:14:18.441Z,1.80
2022-08-10T00:16:46.088Z,1.65
2022-08-10T00:19:16.642Z,1.60
2022-08-10T00:21:46.241Z,1.67
2022-08-10T00:24:13.990Z,1.77
2022-08-10T00:27:52.007Z,1.77
2022-08-10T00:29:29.299Z,1.67
2022-08-10T00:31:59.133Z,1.73
2022-08-10T00:34:28.080Z,1.58
2022-08-10T00:36:55.885Z,1.77
2022-08-10T00:39:23.576Z,1.63
2022-08-10T00:42:07.005Z,1.73
2022-08-10T00:44:39.434Z,1.38
2022-08-10T00:47:07.445Z,2.20
2022-08-10T00:49:48.923Z,1.75
2022-08-10T00:52:18.935Z,1.90
2022-08-10T00:54:48.078Z,2.28
2022-08-10T00:57:18.628Z,1.70
2022-08-10T00:59:57.713Z,1.80
2022-08-10T01:05:00.905Z,1.80
2022-08-10T01:07:38.646Z,2.00
2022-08-10T01:10:25.164Z,1.88
2022-08-10T01:13:10.509Z,2.15
2022-08-10T01:15:53.494Z,2.65
2022-08-10T01:18:21.123Z,1.70
2022-08-10T01:21:07.615Z,1.67
2022-08-10T01:23:44.455Z,1.60
2022-08-10T01:26:31.924Z,2.10
2022-08-10T01:28:59.801Z,1.60
2022-08-10T01:31:29.557Z,1.98
2022-08-10T01:34:04.393Z,2.15
2022-08-10T01:36:36.801Z,1.90
2022-08-10T01:39:05.377Z,1.88
2022-08-10T01:41:46.455Z,1.63
2022-08-10T01:44:20.562Z,1.70
2022-08-10T01:46:52.970Z,1.70
2022-08-10T01:49:25.417Z,1.60
2022-08-10T01:52:00.521Z,1.92
2022-08-10T01:54:29.529Z,1.70
2022-08-10T01:56:58.852Z,2.20
2022-08-10T01:59:30.435Z,2.03
2022-08-10T02:02:00.795Z,1.73
2022-08-10T02:04:28.990Z,1.77
2022-08-10T02:06:56.924Z,1.80
2022-08-10T02:09:25.954Z,1.60
2022-08-10T02:12:06.142Z,1.77
2022-08-10T02:14:52.306Z,1.80
2022-08-10T02:17:57.711Z,1.60
2022-08-10T02:20:15.126Z,1.83
2022-08-10T02:22:44.027Z,1.90
2022-08-10T02:25:40.612Z,1.75
2022-08-10T02:28:02.795Z,1.77
2022-08-10T02:30:31.316Z,1.77
2022-08-10T02:33:00.894Z,2.70
2022-08-10T02:35:42.179Z,1.60
2022-08-10T02:38:20.548Z,2.13
2022-08-10T02:45:03.126Z,2.03
2022-08-10T02:45:18.931Z,2.13
2022-08-10T02:46:47.655Z,1.90
2022-08-10T02:49:23.761Z,1.88
2022-08-10T02:52:07.229Z,1.83
2022-08-10T02:54:39.421Z,2.00
2022-08-10T02:57:10.742Z,1.70
2022-08-10T02:59:43.678Z,1.73
2022-08-10T03:02:13.278Z,2.00
2022-08-10T03:04:54.985Z,1.60
2022-08-10T03:07:44.064Z,1.85
2022-08-10T03:10:32.597Z,1.90
2022-08-10T03:13:01.429Z,1.85
2022-08-10T03:15:32.839Z,1.90
2022-08-10T03:18:00.871Z,1.80
2022-08-10T03:20:38.434Z,1.58
2022-08-10T03:23:18.496Z,1.50
2022-08-10T03:25:52.755Z,1.45
2022-08-10T03:28:22.801Z,1.80
2022-08-10T03:30:50.701Z,2.13
2022-08-10T03:33:18.665Z,1.80
2022-08-10T03:36:41.943Z,2.08
2022-08-10T03:38:34.739Z,1.85
2022-08-10T03:41:07.224Z,1.95
2022-08-10T03:43:35.015Z,2.00
2022-08-10T03:46:06.842Z,1.80
2022-08-10T03:48:48.658Z,1.90
2022-08-10T03:51:18.154Z,1.65
2022-08-10T03:54:06.009Z,1.75
2022-08-10T03:56:35.378Z,1.77
2022-08-10T03:59:03.037Z,2.13
2022-08-10T04:02:45.680Z,1.77
2022-08-10T04:04:24.090Z,1.77
2022-08-10T04:06:54.385Z,1.85
2022-08-10T04:09:42.859Z,2.10
2022-08-10T04:12:14.868Z,2.25
2022-08-10T04:14:50.623Z,2.03
2022-08-10T04:18:02.940Z,2.00
2022-08-10T04:20:11.239Z,2.35
2022-08-10T04:22:40.066Z,2.07
2022-08-10T04:25:08.545Z,2.00
2022-08-10T04:27:36.418Z,1.65
2022-08-10T04:30:04.433Z,2.08
2022-08-10T04:32:32.569Z,2.17
2022-08-10T04:35:00.628Z,1.85
2022-08-10T04:37:28.685Z,2.28
2022-08-10T04:39:56.631Z,2.15
2022-08-10T04:42:24.734Z,2.00
2022-08-10T04:44:52.579Z,1.77
2022-08-10T04:48:00.501Z,2.30
2022-08-10T04:50:08.258Z,1.90
2022-08-10T04:52:37.868Z,2.17
2022-08-10T04:55:05.665Z,2.30
2022-08-10T04:57:33.322Z,2.03
2022-08-10T05:00:00.910Z,1.75
2022-08-10T05:02:32.189Z,2.67
2022-08-10T05:05:00.216Z,1.90
2022-08-10T05:07:27.851Z,1.90
2022-08-10T05:10:01.699Z,6.03
2022-08-10T05:12:37.701Z,3.65
2022-08-10T05:15:10.600Z,2.85
2022-08-10T05:17:38.962Z,3.38
2022-08-10T05:20:08.153Z,2.38
2022-08-10T05:22:36.884Z,3.20
2022-08-10T05:25:05.408Z,2.78
2022-08-10T05:27:33.847Z,2.80
2022-08-10T05:30:03.303Z,2.72
2022-08-10T05:32:55.404Z,2.45
2022-08-10T05:35:23.577Z,2.05
2022-08-10T05:38:10.693Z,2.33
2022-08-10T05:40:47.347Z,2.47
2022-08-10T05:43:19.377Z,2.25
2022-08-10T05:46:18.903Z,2.50
2022-08-10T05:48:56.191Z,2.40
2022-08-10T05:51:27.341Z,3.20
2022-08-10T05:54:02.909Z,2.58
2022-08-10T05:56:54.766Z,3.58
2022-08-10T06:00:33.199Z,2.47
2022-08-10T06:02:33.929Z,2.42
2022-08-10T06:05:10.378Z,3.35
2022-08-10T06:07:40.905Z,2.75
2022-08-10T06:10:12.674Z,2.88
2022-08-10T06:12:55.530Z,2.75
2022-08-10T06:15:51.450Z,2.58
2022-08-10T06:18:20.961Z,2.15
2022-08-10T06:20:48.680Z,3.38
2022-08-10T06:23:16.445Z,4.03
2022-08-10T06:26:10.176Z,3.03
2022-08-10T06:28:34.242Z,2.75
2022-08-10T06:31:04.284Z,2.03
2022-08-10T06:33:34.122Z,2.60
2022-08-10T06:36:02.344Z,2.65
2022-08-10T06:38:32.803Z,2.42
2022-08-10T06:41:02.257Z,2.63
2022-08-10T06:43:31.528Z,5.43
2022-08-10T06:46:06.961Z,2.60
2022-08-10T06:48:46.717Z,2.53
2022-08-10T06:51:16.042Z,2.13
2022-08-10T06:53:52.825Z,2.42
2022-08-10T06:56:36.652Z,2.38
2022-08-10T06:59:13.406Z,2.85
2022-08-10T07:01:54.963Z,2.13
2022-08-10T07:04:32.876Z,2.40
2022-08-10T07:07:05.431Z,2.13
2022-08-10T07:09:37.948Z,3.33
2022-08-10T07:12:09.126Z,2.92
2022-08-10T07:14:44.596Z,2.45
2022-08-10T07:17:15.845Z,2.42
2022-08-10T07:19:49.764Z,2.30
2022-08-10T07:23:54.089Z,2.08
2022-08-10T07:25:11.921Z,2.30
2022-08-10T07:27:58.588Z,2.22
2022-08-10T07:30:30.843Z,2.08
2022-08-10T07:32:59.475Z,1.90
2022-08-10T07:35:36.462Z,1.70
2022-08-10T07:38:11.060Z,2.38
2022-08-10T07:40:40.201Z,2.15
2022-08-10T07:43:08.705Z,2.05
2022-08-10T07:45:36.368Z,2.03
2022-08-10T07:48:30.461Z,1.88
2022-08-10T07:51:00.301Z,2.45
2022-08-10T07:53:35.055Z,2.53
2022-08-10T07:56:16.601Z,1.77
2022-08-10T07:58:55.799Z,1.75
2022-08-10T08:01:29.025Z,2.13
2022-08-10T08:04:05.636Z,2.13
2022-08-10T08:06:40.952Z,1.60
2022-08-10T08:09:09.026Z,1.55
2022-08-10T08:11:37.478Z,1.90
2022-08-10T08:14:06.978Z,2.08
2022-08-10T08:16:35.957Z,1.75
2022-08-10T08:19:27.080Z,1.70
2022-08-10T08:24:10.409Z,1.73
2022-08-10T08:24:42.569Z,1.95
2022-08-10T08:27:11.990Z,1.85
2022-08-10T08:29:41.877Z,1.95
2022-08-10T08:32:10.895Z,1.63
2022-08-10T08:34:40.032Z,1.77
2022-08-10T08:37:12.010Z,2.92
2022-08-10T08:39:41.437Z,1.88
2022-08-10T08:42:29.230Z,1.98
2022-08-10T08:45:04.835Z,1.60
2022-08-10T08:48:03.050Z,2.10
2022-08-10T08:54:02.055Z,2.05
2022-08-10T08:56:50.397Z,1.90
2022-08-10T08:59:31.975Z,1.60
2022-08-10T09:02:12.083Z,1.33
2022-08-10T09:04:58.674Z,2.17
2022-08-10T09:08:00.535Z,1.85
2022-08-10T09:10:40.089Z,2.08
2022-08-10T09:13:15.455Z,1.98
2022-08-10T09:16:00.638Z,1.60
2022-08-10T09:18:42.874Z,1.50
2022-08-10T09:21:14.339Z,2.00
2022-08-10T09:24:04.973Z,2.40
2022-08-10T09:26:42.986Z,1.63
2022-08-10T09:29:13.589Z,1.50
2022-08-10T09:32:55.037Z,1.88
2022-08-10T09:36:25.569Z,1.30
2022-08-10T09:38:02.484Z,1.70
2022-08-10T09:41:00.028Z,1.00
2022-08-10T09:43:40.957Z,1.55
2022-08-10T09:46:21.696Z,1.75
2022-08-10T09:49:17.407Z,1.50
2022-08-10T09:51:49.284Z,1.30
2022-08-10T09:54:22.181Z,1.75
2022-08-10T09:57:24.414Z,1.13
2022-08-10T10:00:06.085Z,1.75
2022-08-10T10:02:43.221Z,1.30
2022-08-10T10:05:30.616Z,2.00
2022-08-10T10:08:08.583Z,1.50
2022-08-10T10:10:47.597Z,1.25
2022-08-10T10:13:49.966Z,2.15
2022-08-10T10:16:35.181Z,1.20
2022-08-10T10:19:08.579Z,1.40
2022-08-10T10:21:57.294Z,1.40
2022-08-10T10:24:25.062Z,1.55
2022-08-10T10:27:03.990Z,1.30
2022-08-10T10:29:58.656Z,1.40
2022-08-10T10:32:37.318Z,1.00
2022-08-10T10:35:20.635Z,1.15
2022-08-10T10:38:00.940Z,1.75
2022-08-10T10:40:35.205Z,1.20
2022-08-10T10:43:22.530Z,1.98
2022-08-10T10:46:04.538Z,0.90
2022-08-10T10:48:32.143Z,1.48
2022-08-10T10:51:18.546Z,1.25
2022-08-10T10:54:05.770Z,1.38
2022-08-10T10:56:45.636Z,2.72
2022-08-10T10:59:54.222Z,1.05
2022-08-10T11:02:29.194Z,1.10
2022-08-10T11:05:18.937Z,1.65
2022-08-10T11:08:01.206Z,1.60
2022-08-10T11:10:47.455Z,1.38
2022-08-10T11:14:27.101Z,1.10
2022-08-10T11:16:29.395Z,1.17
2022-08-10T11:19:16.182Z,1.25
2022-08-10T11:21:52.442Z,1.13
2022-08-10T11:24:42.657Z,1.40
2022-08-10T11:27:24.972Z,1.00
2022-08-10T11:29:58.394Z,0.90
2022-08-10T11:32:35.722Z,1.10
2022-08-10T11:35:12.700Z,0.98
2022-08-10T11:38:32.900Z,1.08
2022-08-10T11:40:43.330Z,1.30
2022-08-10T11:43:14.295Z,1.90
2022-08-10T11:45:52.425Z,1.00
2022-08-10T11:48:53.988Z,0.85
2022-08-10T11:51:25.477Z,1.35
2022-08-10T11:54:25.636Z,1.02
2022-08-10T11:56:58.560Z,0.95
2022-08-10T11:59:50.257Z,1.33
2022-08-10T12:02:21.308Z,0.93
2022-08-10T12:04:51.996Z,1.08
2022-08-10T12:10:02.788Z,1.00
2022-08-10T12:10:13.747Z,1.10
2022-08-10T12:12:55.645Z,1.00
2022-08-10T12:15:29.293Z,0.65
2022-08-10T12:18:02.107Z,1.70
2022-08-10T12:20:32.080Z,1.02
2022-08-10T12:23:08.746Z,0.80
2022-08-10T12:25:55.854Z,1.08
2022-08-10T12:28:49.248Z,1.00
2022-08-10T12:31:15.920Z,0.93
2022-08-10T12:34:02.633Z,1.00
2022-08-10T12:36:36.989Z,1.10
2022-08-10T12:39:12.622Z,1.10
2022-08-10T12:41:45.020Z,1.63
2022-08-10T12:44:41.556Z,0.80
2022-08-10T12:47:29.050Z,0.95
2022-08-10T12:50:31.848Z,0.93
2022-08-10T12:53:12.031Z,0.85
2022-08-10T12:55:39.755Z,0.82
2022-08-10T12:58:59.304Z,1.33
2022-08-10T13:01:15.557Z,1.13
2022-08-10T13:04:20.822Z,0.98
2022-08-10T13:06:35.137Z,0.80
2022-08-10T13:09:09.387Z,0.73
2022-08-10T13:12:38.433Z,0.80
2022-08-10T13:14:32.975Z,0.85
2022-08-10T13:17:01.472Z,1.10
2022-08-10T13:19:54.470Z,0.90
2022-08-10T13:22:18.499Z,1.13
2022-08-10T13:24:48.921Z,1.00
2022-08-10T13:28:01.356Z,0.77
2022-08-10T13:30:37.451Z,1.50
2022-08-10T13:33:06.655Z,1.20
2022-08-10T13:35:34.834Z,0.88
2022-08-10T13:38:03.649Z,1.10
2022-08-10T13:40:32.134Z,0.77
2022-08-10T13:43:00.913Z,0.90
2022-08-10T13:45:29.214Z,1.20
2022-08-10T13:48:08.613Z,1.08
2022-08-10T13:50:37.758Z,0.73
2022-08-10T13:53:11.666Z,0.90
2022-08-10T13:55:53.355Z,0.93
2022-08-10T13:58:36.729Z,0.82
2022-08-10T14:01:11.836Z,0.70
2022-08-10T14:03:40.650Z,1.17
2022-08-10T14:06:11.403Z,1.67
2022-08-10T14:08:41.362Z,1.08
2022-08-10T14:11:13.599Z,0.95
2022-08-10T14:13:48.829Z,1.10
2022-08-10T14:16:17.969Z,0.93
2022-08-10T14:18:46.174Z,1.65
2022-08-10T14:21:14.896Z,1.00
2022-08-10T14:23:52.625Z,0.70
2022-08-10T14:26:24.539Z,0.80
2022-08-10T14:29:07.571Z,1.15
2022-08-10T14:31:37.220Z,1.88
2022-08-10T14:34:08.773Z,0.80
2022-08-10T14:36:54.297Z,0.63
2022-08-10T14:39:26.938Z,0.90
2022-08-10T14:42:05.794Z,0.82
2022-08-10T14:44:43.011Z,0.80
2022-08-10T14:47:53.718Z,0.90
2022-08-10T14:49:59.521Z,0.88
2022-08-10T14:52:28.515Z,0.82
2022-08-10T14:54:57.130Z,1.10
2022-08-10T14:58:16.424Z,0.93
2022-08-10T15:00:28.010Z,0.93
2022-08-10T15:03:01.259Z,1.27
2022-08-10T15:05:39.820Z,0.70
2022-08-10T15:08:11.406Z,0.63
2022-08-10T15:10:39.676Z,0.80
2022-08-10T15:13:33.680Z,0.70
2022-08-10T15:16:11.866Z,1.02
2022-08-10T15:18:57.875Z,0.68
2022-08-10T15:21:40.728Z,0.80
2022-08-10T15:24:15.425Z,0.70
2022-08-10T15:26:51.458Z,1.15
2022-08-10T15:29:26.383Z,0.80
2022-08-10T15:32:12.996Z,1.00
2022-08-10T15:35:07.399Z,0.80
2022-08-10T15:37:37.017Z,0.82
2022-08-10T15:40:25.913Z,1.63
2022-08-10T15:43:24.412Z,0.75
2022-08-10T15:46:00.628Z,0.73
2022-08-10T15:48:30.916Z,0.98
2022-08-10T15:51:05.656Z,0.80
2022-08-10T15:53:50.818Z,0.73
2022-08-10T15:56:28.132Z,0.80
2022-08-10T15:59:08.051Z,0.70
2022-08-10T16:02:12.679Z,0.80
2022-08-10T16:04:32.207Z,0.70
2022-08-10T16:07:00.137Z,1.02
2022-08-10T16:10:24.639Z,1.00
2022-08-10T16:12:29.766Z,1.15
2022-08-10T16:15:00.618Z,1.40
2022-08-10T16:17:28.898Z,1.13
2022-08-10T16:19:58.464Z,0.80
2022-08-10T16:22:35.909Z,0.70
2022-08-10T16:25:12.087Z,0.80
2022-08-10T16:27:40.063Z,0.85
2022-08-10T16:30:08.094Z,1.00
2022-08-10T16:32:36.603Z,1.20
2022-08-10T16:35:09.208Z,1.13
2022-08-10T16:37:57.585Z,0.68
2022-08-10T16:40:26.626Z,1.20
2022-08-10T16:42:54.609Z,0.93
2022-08-10T16:45:24.832Z,0.98
2022-08-10T16:47:54.460Z,1.10
2022-08-10T16:50:24.414Z,0.88
2022-08-10T16:52:53.019Z,1.00
2022-08-10T16:55:24.746Z,1.00
2022-08-10T16:58:10.128Z,1.08
2022-08-10T17:00:39.859Z,1.05
2022-08-10T17:03:22.416Z,0.63
2022-08-10T17:06:11.236Z,0.77
2022-08-10T17:08:54.634Z,0.90
2022-08-10T17:11:23.526Z,0.70
2022-08-10T17:13:51.137Z,1.27
2022-08-10T17:16:19.489Z,2.33
2022-08-10T17:18:48.299Z,1.30
2022-08-10T17:21:20.951Z,1.10
2022-08-10T17:23:56.169Z,0.90
2022-08-10T17:26:36.214Z,1.10
2022-08-10T17:29:53.482Z,1.02
2022-08-10T17:32:01.153Z,1.40
2022-08-10T17:34:30.381Z,2.00
2022-08-10T17:36:59.853Z,1.73
2022-08-10T17:39:30.502Z,1.20
2022-08-10T17:42:01.468Z,1.35
2022-08-10T17:44:34.415Z,1.33
2022-08-10T17:47:10.906Z,1.20
2022-08-10T17:49:42.871Z,1.33
2022-08-10T17:52:11.833Z,0.67
2022-08-10T17:54:42.309Z,1.00
2022-08-10T17:57:12.111Z,0.73
2022-08-10T17:59:40.060Z,0.85
2022-08-10T18:02:27.090Z,0.85
2022-08-10T18:04:57.085Z,0.95
2022-08-10T18:07:35.542Z,1.10
2022-08-10T18:10:17.168Z,1.20
2022-08-10T18:12:46.930Z,1.15
2022-08-10T18:15:16.565Z,0.90
2022-08-10T18:17:46.848Z,0.98
2022-08-10T18:20:19.844Z,0.80
2022-08-10T18:22:48.676Z,0.80
2022-08-10T18:25:36.594Z,0.80
2022-08-10T18:28:07.960Z,1.20
2022-08-10T18:30:45.640Z,0.90
2022-08-10T18:33:14.215Z,0.90
2022-08-10T18:35:42.390Z,1.27
2022-08-10T18:38:11.467Z,1.10
2022-08-10T18:40:42.178Z,0.77
2022-08-10T18:44:09.989Z,0.90
2022-08-10T18:46:01.275Z,1.05
2022-08-10T18:48:41.192Z,0.90
2022-08-10T18:51:09.959Z,0.80
2022-08-10T18:53:41.090Z,1.30
2022-08-10T18:56:17.699Z,0.80
2022-08-10T18:59:04.973Z,0.85
2022-08-10T19:01:55.672Z,1.20
2022-08-10T19:04:34.959Z,1.42
2022-08-10T19:07:05.710Z,1.65
2022-08-10T19:09:55.472Z,0.95
2022-08-10T19:12:31.076Z,1.35
2022-08-10T19:15:18.323Z,1.38
2022-08-10T19:18:03.842Z,1.13
2022-08-10T19:20:45.817Z,1.00
2022-08-10T19:23:15.145Z,1.05
2022-08-10T19:26:41.216Z,1.13
2022-08-10T19:28:45.002Z,1.13
2022-08-10T19:31:20.170Z,1.50
2022-08-10T19:33:50.168Z,1.05
2022-08-10T19:36:29.918Z,1.48
2022-08-10T19:39:12.391Z,1.05
2022-08-10T19:41:48.696Z,1.25
2022-08-10T19:44:22.416Z,1.38
2022-08-10T19:47:23.401Z,1.20
2022-08-10T19:49:58.032Z,1.83
2022-08-10T19:52:48.634Z,1.35
2022-08-10T19:55:34.671Z,1.00
2022-08-10T19:58:16.456Z,1.25
2022-08-10T20:01:05.758Z,1.02
2022-08-10T20:03:42.402Z,0.90
2022-08-10T20:06:28.603Z,1.25
2022-08-10T20:08:59.629Z,1.00
2022-08-10T20:11:45.659Z,1.23
2022-08-10T20:14:26.325Z,1.10
2022-08-10T20:16:59.326Z,0.95
2022-08-10T20:19:52.898Z,0.90
2022-08-10T20:22:28.801Z,1.15
2022-08-10T20:25:01.676Z,1.37
2022-08-10T20:28:06.876Z,0.98
2022-08-10T20:30:30.660Z,1.08
2022-08-10T20:33:03.952Z,1.98
2022-08-10T20:35:37.518Z,0.90
2022-08-10T20:38:15.984Z,1.45
2022-08-10T20:40:46.935Z,1.40
2022-08-10T20:43:23.898Z,1.48
2022-08-10T20:46:08.397Z,1.08
2022-08-10T20:48:45.921Z,1.23
2022-08-10T20:51:23.784Z,1.38
2022-08-10T20:54:11.884Z,1.00
2022-08-10T20:57:02.589Z,1.33
2022-08-10T21:00:03.894Z,2.05
2022-08-10T21:02:49.098Z,1.00
2022-08-10T21:05:29.412Z,1.27
2022-08-10T21:08:03.234Z,1.05
2022-08-10T21:10:49.555Z,1.42
2022-08-10T21:13:19.872Z,1.60
2022-08-10T21:15:51.844Z,1.20
2022-08-10T21:18:37.274Z,1.10
2022-08-10T21:21:42.298Z,1.33
2022-08-10T21:24:12.963Z,1.58
2022-08-10T21:26:53.646Z,1.38
2022-08-10T21:32:02.031Z,1.10
2022-08-10T21:34:54.019Z,1.10
2022-08-10T21:37:56.998Z,1.40
2022-08-10T21:41:17.108Z,1.17
2022-08-10T21:44:23.417Z,1.30
2022-08-10T21:47:31.053Z,1.52
2022-08-10T21:50:27.466Z,1.27
2022-08-10T21:53:44.462Z,1.10
2022-08-10T21:56:37.710Z,1.20
2022-08-10T21:59:35.681Z,1.60
2022-08-10T22:02:28.254Z,1.70
2022-08-10T22:05:21.078Z,1.58
2022-08-10T22:08:12.153Z,1.23
2022-08-10T22:11:09.415Z,1.13
2022-08-10T22:14:06.178Z,1.27
2022-08-10T22:17:04.647Z,1.33
2022-08-10T22:20:09.675Z,1.20
2022-08-10T22:23:03.362Z,1.35
2022-08-10T22:26:34.709Z,1.60
2022-08-10T22:29:42.287Z,1.73
2022-08-10T22:32:30.873Z,1.20
2022-08-10T22:35:37.976Z,1.50
2022-08-10T22:38:57.073Z,1.58
2022-08-10T22:41:49.647Z,1.30
2022-08-10T22:44:37.999Z,1.70
2022-08-10T22:47:25.681Z,1.42
2022-08-10T22:49:54.210Z,1.50
2022-08-10T22:52:33.951Z,1.40
2022-08-10T22:55:40.981Z,1.42
2022-08-10T22:58:32.533Z,1.75
2022-08-10T23:01:37.599Z,1.50
2022-08-10T23:04:14.476Z,1.60
2022-08-10T23:06:44.536Z,1.25
2022-08-10T23:09:16.908Z,1.00
2022-08-10T23:11:45.585Z,1.52
2022-08-10T23:14:15.625Z,1.42
2022-08-10T23:17:04.088Z,1.08
2022-08-10T23:19:33.157Z,1.23
2022-08-10T23:22:04.021Z,1.08
2022-08-10T23:24:34.733Z,1.08
2022-08-10T23:27:12.231Z,1.20
2022-08-10T23:30:03.661Z,1.15
2022-08-10T23:32:31.665Z,1.25
2022-08-10T23:36:30.501Z,1.23
2022-08-10T23:37:55.736Z,1.70
2022-08-10T23:40:23.535Z,1.23
2022-08-10T23:42:53.050Z,1.42
2022-08-10T23:45:24.807Z,1.50
2022-08-10T23:47:54.371Z,1.60
2022-08-10T23:50:23.922Z,1.30
2022-08-10T23:52:53.127Z,1.95
2022-08-10T23:55:29.546Z,1.50
